sensor_id;sensor_type;location;lat;lon;timestamp;P1;durP1;ratioP1;P2;durP2;ratioP2
49758;SDS011;35654;46.080;11.118;2022-11-15T14:06:45;10.25;;;5.78;;
49758;SDS011;35654;46.080;11.118;2022-11-15T14:11:55;12.20;;;5.60;;
49758;SDS011;35654;46.080;11.118;2022-11-15T14:14:22;60.40;;;9.60;;
49758;SDS011;35654;46.080;11.118;2022-11-15T14:16:56;48.80;;;9.15;;
49758;SDS011;35654;46.080;11.118;2022-11-15T14:22:08;10.70;;;5.60;;
49758;SDS011;35654;46.080;11.118;2022-11-15T14:24:33;10.52;;;5.60;;
49758;SDS011;35654;46.080;11.118;2022-11-15T14:29:50;14.73;;;6.00;;
49758;SDS011;35654;46.080;11.118;2022-11-15T14:34:49;30.83;;;8.13;;
49758;SDS011;35654;46.080;11.118;2022-11-15T14:37:23;37.72;;;8.98;;
49758;SDS011;35654;46.080;11.118;2022-11-15T14:39:51;26.83;;;7.50;;
49758;SDS011;35654;46.080;11.118;2022-11-15T14:42:17;26.30;;;8.10;;
49758;SDS011;35654;46.080;11.118;2022-11-15T14:44:43;35.88;;;9.05;;
49758;SDS011;35654;46.080;11.118;2022-11-15T14:47:08;11.83;;;5.67;;
49758;SDS011;35654;46.080;11.118;2022-11-15T14:49:34;15.07;;;6.70;;
49758;SDS011;35654;46.080;11.118;2022-11-15T14:51:59;10.63;;;5.97;;
49758;SDS011;35654;46.080;11.118;2022-11-15T14:54:24;9.27;;;6.30;;
49758;SDS011;35654;46.080;11.118;2022-11-15T14:56:50;11.97;;;6.60;;
49758;SDS011;35654;46.080;11.118;2022-11-15T14:59:15;11.27;;;6.27;;
49758;SDS011;35654;46.080;11.118;2022-11-15T15:01:40;14.93;;;7.13;;
49758;SDS011;35654;46.080;11.118;2022-11-15T15:04:06;22.70;;;9.33;;
49758;SDS011;35654;46.080;11.118;2022-11-15T15:06:31;11.57;;;7.00;;
49758;SDS011;35654;46.080;11.118;2022-11-15T15:08:57;14.87;;;7.30;;
49758;SDS011;35654;46.080;11.118;2022-11-15T15:11:23;10.80;;;6.27;;
49758;SDS011;35654;46.080;11.118;2022-11-15T15:13:51;12.32;;;5.57;;
49758;SDS011;35654;46.080;11.118;2022-11-15T15:16:17;11.32;;;5.60;;
49758;SDS011;35654;46.080;11.118;2022-11-15T15:18:43;10.03;;;5.87;;
49758;SDS011;35654;46.080;11.118;2022-11-15T15:21:21;15.03;;;6.53;;
49758;SDS011;35654;46.080;11.118;2022-11-15T15:23:48;13.48;;;5.85;;
49758;SDS011;35654;46.080;11.118;2022-11-15T15:26:13;12.20;;;6.30;;
49758;SDS011;35654;46.080;11.118;2022-11-15T15:28:39;11.63;;;6.37;;
49758;SDS011;35654;46.080;11.118;2022-11-15T15:31:04;8.83;;;6.03;;
49758;SDS011;35654;46.080;11.118;2022-11-15T15:33:30;14.80;;;6.20;;
49758;SDS011;35654;46.080;11.118;2022-11-15T15:35:56;11.82;;;6.43;;
49758;SDS011;35654;46.080;11.118;2022-11-15T15:38:22;12.37;;;6.40;;
49758;SDS011;35654;46.080;11.118;2022-11-15T15:40:47;12.27;;;6.47;;
49758;SDS011;35654;46.080;11.118;2022-11-15T15:43:13;16.77;;;8.17;;
49758;SDS011;35654;46.080;11.118;2022-11-15T15:45:40;52.20;;;22.00;;
49758;SDS011;35654;46.080;11.118;2022-11-15T15:48:13;104.18;;;36.05;;
49758;SDS011;35654;46.080;11.118;2022-11-15T15:50:41;90.78;;;33.70;;
49758;SDS011;35654;46.080;11.118;2022-11-15T15:53:10;61.95;;;26.15;;
49758;SDS011;35654;46.080;11.118;2022-11-15T15:58:03;36.67;;;16.40;;
49758;SDS011;35654;46.080;11.118;2022-11-15T16:00:29;24.73;;;11.65;;
49758;SDS011;35654;46.080;11.118;2022-11-15T16:02:57;32.03;;;13.73;;
49758;SDS011;35654;46.080;11.118;2022-11-15T16:05:23;23.63;;;11.03;;
49758;SDS011;35654;46.080;11.118;2022-11-15T16:07:48;24.20;;;10.13;;
49758;SDS011;35654;46.080;11.118;2022-11-15T16:10:22;18.47;;;9.20;;
49758;SDS011;35654;46.080;11.118;2022-11-15T16:12:55;16.75;;;7.30;;
49758;SDS011;35654;46.080;11.118;2022-11-15T16:15:22;13.18;;;7.72;;
49758;SDS011;35654;46.080;11.118;2022-11-15T16:17:55;16.90;;;6.80;;
49758;SDS011;35654;46.080;11.118;2022-11-15T16:22:59;14.25;;;6.65;;
49758;SDS011;35654;46.080;11.118;2022-11-15T16:25:25;13.43;;;7.35;;
49758;SDS011;35654;46.080;11.118;2022-11-15T16:27:51;14.93;;;7.30;;
49758;SDS011;35654;46.080;11.118;2022-11-15T16:30:18;16.67;;;7.70;;
49758;SDS011;35654;46.080;11.118;2022-11-15T16:32:45;16.08;;;7.43;;
49758;SDS011;35654;46.080;11.118;2022-11-15T16:35:11;12.57;;;7.13;;
49758;SDS011;35654;46.080;11.118;2022-11-15T16:37:37;19.52;;;8.38;;
49758;SDS011;35654;46.080;11.118;2022-11-15T16:40:10;15.20;;;8.90;;
49758;SDS011;35654;46.080;11.118;2022-11-15T16:42:51;15.35;;;8.77;;
49758;SDS011;35654;46.080;11.118;2022-11-15T16:45:16;16.00;;;8.30;;
49758;SDS011;35654;46.080;11.118;2022-11-15T16:47:42;16.23;;;7.90;;
49758;SDS011;35654;46.080;11.118;2022-11-15T16:50:30;16.80;;;7.83;;
49758;SDS011;35654;46.080;11.118;2022-11-15T16:52:55;13.07;;;6.95;;
49758;SDS011;35654;46.080;11.118;2022-11-15T16:55:23;16.25;;;7.60;;
49758;SDS011;35654;46.080;11.118;2022-11-15T16:57:52;15.00;;;8.05;;
49758;SDS011;35654;46.080;11.118;2022-11-15T17:02:45;15.63;;;9.18;;
49758;SDS011;35654;46.080;11.118;2022-11-15T17:05:12;16.40;;;8.63;;
49758;SDS011;35654;46.080;11.118;2022-11-15T17:10:05;14.80;;;8.15;;
49758;SDS011;35654;46.080;11.118;2022-11-15T17:12:32;14.48;;;8.43;;
49758;SDS011;35654;46.080;11.118;2022-11-15T17:14:58;16.38;;;8.77;;
49758;SDS011;35654;46.080;11.118;2022-11-15T17:17:23;17.33;;;9.37;;
49758;SDS011;35654;46.080;11.118;2022-11-15T17:19:50;16.63;;;9.07;;
49758;SDS011;35654;46.080;11.118;2022-11-15T17:24:42;19.90;;;9.13;;
49758;SDS011;35654;46.080;11.118;2022-11-15T17:27:07;18.73;;;9.67;;
49758;SDS011;35654;46.080;11.118;2022-11-15T17:29:33;21.73;;;12.20;;
49758;SDS011;35654;46.080;11.118;2022-11-15T17:31:58;26.57;;;11.00;;
49758;SDS011;35654;46.080;11.118;2022-11-15T17:34:23;18.73;;;10.37;;
49758;SDS011;35654;46.080;11.118;2022-11-15T17:36:49;15.93;;;9.07;;
49758;SDS011;35654;46.080;11.118;2022-11-15T17:39:14;18.57;;;9.10;;
49758;SDS011;35654;46.080;11.118;2022-11-15T17:41:39;14.33;;;8.30;;
49758;SDS011;35654;46.080;11.118;2022-11-15T17:44:05;19.53;;;8.70;;
49758;SDS011;35654;46.080;11.118;2022-11-15T17:46:30;20.30;;;9.50;;
49758;SDS011;35654;46.080;11.118;2022-11-15T17:51:22;22.00;;;11.32;;
49758;SDS011;35654;46.080;11.118;2022-11-15T17:53:48;18.23;;;9.90;;
49758;SDS011;35654;46.080;11.118;2022-11-15T17:56:15;18.00;;;8.70;;
49758;SDS011;35654;46.080;11.118;2022-11-15T17:58:52;16.77;;;8.88;;
49758;SDS011;35654;46.080;11.118;2022-11-15T18:01:29;15.95;;;9.25;;
49758;SDS011;35654;46.080;11.118;2022-11-15T18:03:56;17.35;;;10.07;;
49758;SDS011;35654;46.080;11.118;2022-11-15T18:06:25;19.20;;;9.60;;
49758;SDS011;35654;46.080;11.118;2022-11-15T18:08:52;14.10;;;7.90;;
49758;SDS011;35654;46.080;11.118;2022-11-15T18:11:22;14.38;;;7.85;;
49758;SDS011;35654;46.080;11.118;2022-11-15T18:13:59;17.33;;;8.43;;
49758;SDS011;35654;46.080;11.118;2022-11-15T18:16:28;15.07;;;7.72;;
49758;SDS011;35654;46.080;11.118;2022-11-15T18:18:55;14.70;;;8.20;;
49758;SDS011;35654;46.080;11.118;2022-11-15T18:21:23;13.90;;;7.53;;
49758;SDS011;35654;46.080;11.118;2022-11-15T18:23:52;13.20;;;7.15;;
49758;SDS011;35654;46.080;11.118;2022-11-15T18:26:19;16.15;;;8.35;;
49758;SDS011;35654;46.080;11.118;2022-11-15T18:28:45;17.90;;;9.30;;
49758;SDS011;35654;46.080;11.118;2022-11-15T18:31:16;23.67;;;10.20;;
49758;SDS011;35654;46.080;11.118;2022-11-15T18:33:42;19.80;;;9.77;;
49758;SDS011;35654;46.080;11.118;2022-11-15T18:36:10;19.15;;;10.02;;
49758;SDS011;35654;46.080;11.118;2022-11-15T18:38:37;16.20;;;9.23;;
49758;SDS011;35654;46.080;11.118;2022-11-15T18:43:33;18.40;;;10.32;;
49758;SDS011;35654;46.080;11.118;2022-11-15T18:46:05;21.93;;;10.77;;
49758;SDS011;35654;46.080;11.118;2022-11-15T18:48:33;20.45;;;10.48;;
49758;SDS011;35654;46.080;11.118;2022-11-15T18:51:07;15.65;;;9.25;;
49758;SDS011;35654;46.080;11.118;2022-11-15T18:53:35;23.23;;;10.65;;
49758;SDS011;35654;46.080;11.118;2022-11-15T18:56:02;22.80;;;11.30;;
49758;SDS011;35654;46.080;11.118;2022-11-15T18:58:33;22.50;;;11.25;;
49758;SDS011;35654;46.080;11.118;2022-11-15T19:01:10;17.85;;;9.50;;
49758;SDS011;35654;46.080;11.118;2022-11-15T19:03:37;19.85;;;10.60;;
49758;SDS011;35654;46.080;11.118;2022-11-15T19:06:06;20.77;;;10.13;;
49758;SDS011;35654;46.080;11.118;2022-11-15T19:08:33;17.50;;;10.70;;
49758;SDS011;35654;46.080;11.118;2022-11-15T19:11:07;20.17;;;11.25;;
49758;SDS011;35654;46.080;11.118;2022-11-15T19:13:36;21.55;;;10.38;;
49758;SDS011;35654;46.080;11.118;2022-11-15T19:16:02;19.80;;;10.63;;
49758;SDS011;35654;46.080;11.118;2022-11-15T19:18:28;20.45;;;10.07;;
49758;SDS011;35654;46.080;11.118;2022-11-15T19:20:54;18.73;;;9.98;;
49758;SDS011;35654;46.080;11.118;2022-11-15T19:23:21;16.65;;;9.02;;
49758;SDS011;35654;46.080;11.118;2022-11-15T19:25:54;19.52;;;9.50;;
49758;SDS011;35654;46.080;11.118;2022-11-15T19:28:23;16.17;;;9.30;;
49758;SDS011;35654;46.080;11.118;2022-11-15T19:30:49;18.42;;;9.85;;
49758;SDS011;35654;46.080;11.118;2022-11-15T19:33:16;21.33;;;10.60;;
49758;SDS011;35654;46.080;11.118;2022-11-15T19:35:41;19.83;;;10.60;;
49758;SDS011;35654;46.080;11.118;2022-11-15T19:38:06;20.70;;;11.03;;
49758;SDS011;35654;46.080;11.118;2022-11-15T19:40:32;20.30;;;10.73;;
49758;SDS011;35654;46.080;11.118;2022-11-15T19:42:58;21.10;;;10.63;;
49758;SDS011;35654;46.080;11.118;2022-11-15T19:45:23;15.97;;;9.90;;
49758;SDS011;35654;46.080;11.118;2022-11-15T19:47:48;21.97;;;10.10;;
49758;SDS011;35654;46.080;11.118;2022-11-15T19:50:14;17.90;;;9.33;;
49758;SDS011;35654;46.080;11.118;2022-11-15T19:52:39;13.33;;;7.93;;
49758;SDS011;35654;46.080;11.118;2022-11-15T19:55:05;15.53;;;8.73;;
49758;SDS011;35654;46.080;11.118;2022-11-15T19:57:30;16.88;;;9.23;;
49758;SDS011;35654;46.080;11.118;2022-11-15T19:59:56;21.70;;;11.60;;
49758;SDS011;35654;46.080;11.118;2022-11-15T20:02:21;16.50;;;9.20;;
49758;SDS011;35654;46.080;11.118;2022-11-15T20:04:47;16.57;;;9.77;;
49758;SDS011;35654;46.080;11.118;2022-11-15T20:07:12;20.50;;;10.93;;
49758;SDS011;35654;46.080;11.118;2022-11-15T20:09:37;20.43;;;10.77;;
49758;SDS011;35654;46.080;11.118;2022-11-15T20:12:03;16.10;;;9.77;;
49758;SDS011;35654;46.080;11.118;2022-11-15T20:14:28;17.77;;;10.40;;
49758;SDS011;35654;46.080;11.118;2022-11-15T20:16:54;17.10;;;10.27;;
49758;SDS011;35654;46.080;11.118;2022-11-15T20:19:20;20.73;;;10.55;;
49758;SDS011;35654;46.080;11.118;2022-11-15T20:21:46;18.60;;;11.25;;
49758;SDS011;35654;46.080;11.118;2022-11-15T20:24:12;17.67;;;10.77;;
49758;SDS011;35654;46.080;11.118;2022-11-15T20:26:38;17.33;;;11.30;;
49758;SDS011;35654;46.080;11.118;2022-11-15T20:29:04;22.03;;;10.80;;
49758;SDS011;35654;46.080;11.118;2022-11-15T20:33:56;19.40;;;10.55;;
49758;SDS011;35654;46.080;11.118;2022-11-15T20:36:21;31.77;;;14.07;;
49758;SDS011;35654;46.080;11.118;2022-11-15T20:38:48;34.83;;;15.87;;
49758;SDS011;35654;46.080;11.118;2022-11-15T20:41:14;30.73;;;14.23;;
49758;SDS011;35654;46.080;11.118;2022-11-15T20:43:40;27.95;;;14.52;;
49758;SDS011;35654;46.080;11.118;2022-11-15T20:46:07;25.98;;;13.48;;
49758;SDS011;35654;46.080;11.118;2022-11-15T20:48:34;23.75;;;13.27;;
49758;SDS011;35654;46.080;11.118;2022-11-15T20:51:13;20.85;;;12.65;;
49758;SDS011;35654;46.080;11.118;2022-11-15T20:53:41;25.08;;;14.23;;
49758;SDS011;35654;46.080;11.118;2022-11-15T20:56:18;24.02;;;12.88;;
49758;SDS011;35654;46.080;11.118;2022-11-15T20:58:44;21.02;;;12.02;;
49758;SDS011;35654;46.080;11.118;2022-11-15T21:01:11;21.58;;;10.73;;
49758;SDS011;35654;46.080;11.118;2022-11-15T21:03:39;34.83;;;18.55;;
49758;SDS011;35654;46.080;11.118;2022-11-15T21:06:08;31.48;;;16.50;;
49758;SDS011;35654;46.080;11.118;2022-11-15T21:08:34;27.38;;;14.75;;
49758;SDS011;35654;46.080;11.118;2022-11-15T21:11:18;22.92;;;13.30;;
49758;SDS011;35654;46.080;11.118;2022-11-15T21:14:02;24.13;;;13.07;;
49758;SDS011;35654;46.080;11.118;2022-11-15T21:16:32;23.07;;;11.97;;
49758;SDS011;35654;46.080;11.118;2022-11-15T21:18:58;23.67;;;13.20;;
49758;SDS011;35654;46.080;11.118;2022-11-15T21:21:24;25.47;;;13.43;;
49758;SDS011;35654;46.080;11.118;2022-11-15T21:23:49;27.73;;;14.73;;
49758;SDS011;35654;46.080;11.118;2022-11-15T21:26:15;27.20;;;14.70;;
49758;SDS011;35654;46.080;11.118;2022-11-15T21:28:40;26.80;;;14.23;;
49758;SDS011;35654;46.080;11.118;2022-11-15T21:31:07;29.87;;;15.53;;
49758;SDS011;35654;46.080;11.118;2022-11-15T21:33:34;28.35;;;15.65;;
49758;SDS011;35654;46.080;11.118;2022-11-15T21:36:01;28.70;;;15.45;;
49758;SDS011;35654;46.080;11.118;2022-11-15T21:40:54;29.40;;;15.48;;
49758;SDS011;35654;46.080;11.118;2022-11-15T21:43:20;32.70;;;15.82;;
49758;SDS011;35654;46.080;11.118;2022-11-15T21:45:55;28.08;;;14.43;;
49758;SDS011;35654;46.080;11.118;2022-11-15T21:48:21;25.55;;;14.45;;
49758;SDS011;35654;46.080;11.118;2022-11-15T21:50:59;24.57;;;13.83;;
49758;SDS011;35654;46.080;11.118;2022-11-15T21:53:27;24.95;;;13.15;;
49758;SDS011;35654;46.080;11.118;2022-11-15T21:55:54;24.92;;;13.88;;
49758;SDS011;35654;46.080;11.118;2022-11-15T21:58:21;23.38;;;13.93;;
49758;SDS011;35654;46.080;11.118;2022-11-15T22:00:48;22.52;;;12.25;;
49758;SDS011;35654;46.080;11.118;2022-11-15T22:03:33;19.25;;;10.50;;
49758;SDS011;35654;46.080;11.118;2022-11-15T22:06:00;20.60;;;11.88;;
49758;SDS011;35654;46.080;11.118;2022-11-15T22:08:27;22.38;;;10.77;;
49758;SDS011;35654;46.080;11.118;2022-11-15T22:10:54;16.98;;;9.80;;
49758;SDS011;35654;46.080;11.118;2022-11-15T22:13:22;15.63;;;9.85;;
49758;SDS011;35654;46.080;11.118;2022-11-15T22:15:49;18.77;;;9.75;;
49758;SDS011;35654;46.080;11.118;2022-11-15T22:18:16;17.27;;;10.40;;
49758;SDS011;35654;46.080;11.118;2022-11-15T22:23:28;25.80;;;11.05;;
49758;SDS011;35654;46.080;11.118;2022-11-15T22:25:55;19.17;;;11.15;;
49758;SDS011;35654;46.080;11.118;2022-11-15T22:28:22;21.50;;;11.10;;
49758;SDS011;35654;46.080;11.118;2022-11-15T22:30:50;21.55;;;12.00;;
49758;SDS011;35654;46.080;11.118;2022-11-15T22:33:19;23.40;;;11.27;;
49758;SDS011;35654;46.080;11.118;2022-11-15T22:35:47;23.85;;;12.07;;
49758;SDS011;35654;46.080;11.118;2022-11-15T22:38:13;19.40;;;10.45;;
49758;SDS011;35654;46.080;11.118;2022-11-15T22:40:41;20.08;;;10.85;;
49758;SDS011;35654;46.080;11.118;2022-11-15T22:43:08;21.38;;;11.30;;
49758;SDS011;35654;46.080;11.118;2022-11-15T22:45:39;24.00;;;12.05;;
49758;SDS011;35654;46.080;11.118;2022-11-15T22:48:23;22.27;;;12.25;;
49758;SDS011;35654;46.080;11.118;2022-11-15T22:50:57;23.95;;;12.63;;
49758;SDS011;35654;46.080;11.118;2022-11-15T22:53:22;21.27;;;11.32;;
49758;SDS011;35654;46.080;11.118;2022-11-15T22:55:50;18.88;;;10.73;;
49758;SDS011;35654;46.080;11.118;2022-11-15T22:58:21;21.33;;;11.38;;
49758;SDS011;35654;46.080;11.118;2022-11-15T23:00:55;20.83;;;11.80;;
49758;SDS011;35654;46.080;11.118;2022-11-15T23:03:24;22.80;;;11.65;;
49758;SDS011;35654;46.080;11.118;2022-11-15T23:05:51;20.88;;;12.23;;
49758;SDS011;35654;46.080;11.118;2022-11-15T23:08:18;19.83;;;11.67;;
49758;SDS011;35654;46.080;11.118;2022-11-15T23:10:45;24.70;;;12.15;;
49758;SDS011;35654;46.080;11.118;2022-11-15T23:13:31;18.80;;;10.38;;
49758;SDS011;35654;46.080;11.118;2022-11-15T23:16:03;18.27;;;9.82;;
49758;SDS011;35654;46.080;11.118;2022-11-15T23:18:55;22.42;;;11.27;;
49758;SDS011;35654;46.080;11.118;2022-11-15T23:21:25;17.75;;;10.63;;
49758;SDS011;35654;46.080;11.118;2022-11-15T23:24:12;20.50;;;10.70;;
49758;SDS011;35654;46.080;11.118;2022-11-15T23:26:39;18.42;;;10.43;;
49758;SDS011;35654;46.080;11.118;2022-11-15T23:29:07;20.15;;;10.45;;
49758;SDS011;35654;46.080;11.118;2022-11-15T23:31:35;20.58;;;10.48;;
49758;SDS011;35654;46.080;11.118;2022-11-15T23:34:20;16.85;;;10.82;;
49758;SDS011;35654;46.080;11.118;2022-11-15T23:36:47;21.33;;;10.93;;
49758;SDS011;35654;46.080;11.118;2022-11-15T23:39:14;18.10;;;10.40;;
49758;SDS011;35654;46.080;11.118;2022-11-15T23:41:41;16.95;;;10.18;;
49758;SDS011;35654;46.080;11.118;2022-11-15T23:44:07;19.85;;;10.82;;
49758;SDS011;35654;46.080;11.118;2022-11-15T23:46:33;20.98;;;11.20;;
49758;SDS011;35654;46.080;11.118;2022-11-15T23:49:00;21.48;;;11.38;;
49758;SDS011;35654;46.080;11.118;2022-11-15T23:51:27;19.67;;;11.00;;
49758;SDS011;35654;46.080;11.118;2022-11-15T23:53:54;20.52;;;10.82;;
49758;SDS011;35654;46.080;11.118;2022-11-15T23:56:21;22.17;;;10.93;;
49758;SDS011;35654;46.080;11.118;2022-11-15T23:58:48;18.48;;;10.43;;
